AirNav   Phillips 66 Aviation Fuel
 
 858 users online  

47WI Oakbrook Airport
Fort Atkinson, Wisconsin, USA

GOING TO FORT ATKINSON?


FAA INFORMATION EFFECTIVE 07 DECEMBER 2017

Location

FAA Identifier: 47WI
Lat/Long: 42-53-24.0250N / 088-48-29.3820W
42-53.400417N / 088-48.489700W
42.8900069 / -88.8081617
(estimated)
Elevation: 840 ft. / 256 m (estimated)
Variation: 00W (1985)
From city: 3 miles SE of FORT ATKINSON, WI
Time zone: UTC -6 (UTC -5 during Daylight Saving Time)
Zip code: 53538

Airport Operations

Airport use: Private use. Permission required prior to landing
Activation date: 08/1979
Control tower: no
ARTCC: CHICAGO CENTER
FSS: GREEN BAY FLIGHT SERVICE STATION
Attendance: UNATNDD
Wind indicator: yes
Segmented circle: no

Airport Communications

WX AWOS-3 at RYV (17 nm N): 119.975 (920-261-0734)
WX AWOS-3 at JVL (19 nm SW): PHONE 608-758-1723
WX AWOS-3PT at 57C (20 nm E): 118.125 (262-642-1845)

Nearby radio navigation aids

VOR radial/distance  VOR name  Freq  Var
JVLr030/23.8JANESVILLE VOR/DME114.3003E
BUUr299/25.3BURBUN VOR/DME114.5001W
BAEr237/26.7BADGER VOR/DME116.4002E
MSNr120/27.9MADISON VORTAC108.6003E
LJTr251/36.3TIMMERMAN VOR/DME112.5002W

 
NDB name  Hdg/Dist  Freq  Var  ID
LAKE LAWN322/14.940402WLVV .-.. ...- ...-
ROCK RIVER193/17.437101WRYV .-. -.-- ...-
JUNEAU189/32.734401WUNU ..- -. ..-

Airport Services

Runway Information

Runway 9/27

Dimensions: 2100 x 30 ft. / 640 x 9 m
Surface: asphalt
Runway edge markings: 09/27 CENTER LINE REFLECTORS.
RUNWAY 9  RUNWAY 27
Traffic pattern: leftleft

Airport Ownership and Management from official FAA records

Ownership: Privately-owned
Owner: J. W. O'DONNELL & ASSOC INC.
N1402 HWY 12
FORT ATKINSON, WI 53538
Phone 414-563-9611
Manager: JOHN W. O'DONNELL
RR 2, BOX 317
FORT ATKINSON, WI 53538
Phone 414-563-9611

Airport Operational Statistics

Aircraft based on the field: 2
Single engine airplanes: 1
Ultralights: 1
    

Instrument Procedures

There are no published instrument procedures at 47WI.

Some nearby airports with instrument procedures:

61C - Fort Atkinson Municipal Airport (4 nm N)
KRYV - Watertown Municipal Airport (17 nm N)
KJVL - Southern Wisconsin Regional Airport (19 nm SW)
57C - East Troy Municipal Airport (20 nm E)
87Y - Blackhawk Airfield (21 nm NW)
 
Loc | Ops | Rwys | IFR | FBO | Links
Com | Nav | Svcs | Stats | Notes


 
Area around 47WI (Oakbrook Airport)
 
Road maps at: MapQuest Bing Google
 
Aerial photo
WARNING: Photo may not be current or correct
Aerial photo of 47WI (Oakbrook Airport)
Do you have a better or more recent aerial photo of Oakbrook Airport that you would like to share? If so, please send us your photo.

 
Sectional chart

 
Airport distance calculator
Flying to Oakbrook Airport? Find the distance to fly.

From to 47WI

Sunrise and sunset
Times for 11-Dec-2017
 Local
(UTC-6)
 Zulu
(UTC)
Morning civil twilight06:4512:45
Sunrise07:1713:17
Sunset16:2022:20
Evening civil twilight16:5222:52

Current date and time
Zulu (UTC)  12-Dec-2017 03:52:48
Local (UTC-6)  11-Dec-2017 21:52:48
 
METAR
KRYV 
17nm N 
120335Z AUTO 33014G22KT 10SM OVC035 M01/M07 A2989 RMK AO2 T10151066
KJVL 
19nm SW 
120335Z AUTO 34012G21KT 10SM OVC031 00/M06 A2990 RMK AO2
KBUU 
26nm SE 
120330Z AUTO 33009KT 10SM BKN024 BKN032 05/03 A2988 RMK AO2 T00480033
KMSN 
28nm NW 
120337Z 33013G25KT 10SM OVC034 M02/M08 A2993 RMK AO2 T10171078
KUES 
31nm E 
120335Z AUTO 31009G17KT 10SM OVC028 M02/M06 A2987 RMK AO2
KUNU 
32nm N 
120335Z AUTO 33018G29KT 10SM SCT027 OVC035 M03/M09 A2991 RMK AO2 T10351094
TAF
KMSN 
28nm NW 
112040Z 1121/1218 32004KT 6SM -SN VCSH BKN045 OVC060 FM112130 33008KT P6SM VCSH OVC008 FM112300 33010KT P6SM OVC010 FM120000 34011G23KT P6SM OVC010 FM120500 34016G28KT P6SM BKN035 FM121600 32013KT P6SM SCT250
KUES 
31nm E 
112114Z 1121/1218 24004KT P6SM OVC050 FM112300 32006KT P6SM OVC025 FM120100 33011G22KT P6SM OVC015 FM120300 32015G28KT P6SM BKN020 FM121000 32015G25KT P6SM SCT070 FM121100 32016KT P6SM SCT120
NOTAMs
Click for the latest NOTAMs
NOTAMs are issued by the DoD/FAA and will open in a separate window not controlled by AirNav.

 

 
 

Would you like to see your business listed on this page?

 If your business provides an interesting product or service to pilots, flight crews, aircraft, or users of the Oakbrook Airport, you should consider listing it here.  To start the listing process, click on the button below
 
Add a business
 

Other Pages about Oakbrook Airport

Update a link
 
Copyright © AirNav, LLC. All rights reserved. Privacy Policy  Contact